Fort Kent Mills, Maine
Current Conditions -  °F | °C
As of 10:07 AM on Saturday 20 Dec 2014 (Local Time) from KFVE Reporting Station
Light Snow Light Snow  
Wind Chill:   Ceiling: 1000
Heat Index: 14°   Visibility: 3mi
Dew Point: 12°   Wind: 6mph
Humidity: 92%   Direction: 80°E
Pressure: 30.31"   Gusts: NA
Location:  47.24°N, 68.58°W
Report Text: KFVE 201507Z AUTO 08005KT 3SM -SN BR OVC010 M10/M11 A3031 RMK AO2 P0000 T11001111
Loading
Personal Weather Stations






























Interactive Weather Map New forecast layout! Learn more

10-Day Weather Forecast

Advertisements
Track Severe Weather on mobile